createdAt,value
2023-03-05T00:00:49.653Z,33
2023-03-05T00:01:52.973Z,33
2023-03-05T00:02:56.695Z,33
2023-03-05T00:04:00.252Z,33
2023-03-05T00:05:03.625Z,33
2023-03-05T00:06:06.908Z,33
2023-03-05T00:07:10.373Z,33
2023-03-05T00:08:13.718Z,33
2023-03-05T00:09:17.019Z,33
2023-03-05T00:10:20.342Z,33
2023-03-05T00:11:23.628Z,33
2023-03-05T00:12:26.948Z,33
2023-03-05T00:13:30.409Z,33
2023-03-05T00:14:33.707Z,33
2023-03-05T00:15:37.084Z,33
2023-03-05T00:16:40.399Z,33
2023-03-05T00:17:43.696Z,33
2023-03-05T00:18:48.039Z,33
2023-03-05T00:19:51.363Z,33
2023-03-05T00:20:54.676Z,33
2023-03-05T00:21:57.978Z,33
2023-03-05T00:23:01.380Z,33
2023-03-05T00:24:04.769Z,33
2023-03-05T00:25:08.277Z,33
2023-03-05T00:26:11.556Z,33
2023-03-05T00:27:14.825Z,33
2023-03-05T00:28:18.160Z,33
2023-03-05T00:29:21.477Z,33
2023-03-05T00:30:24.762Z,32
2023-03-05T00:31:28.172Z,33
2023-03-05T00:32:31.582Z,33
2023-03-05T00:33:35.367Z,33
2023-03-05T00:34:38.656Z,33
2023-03-05T00:35:42.046Z,33
2023-03-05T00:36:45.450Z,33
2023-03-05T00:37:48.733Z,33
2023-03-05T00:38:52.038Z,33
2023-03-05T00:39:55.406Z,32
2023-03-05T00:40:58.671Z,33
2023-03-05T00:42:01.967Z,33
2023-03-05T00:43:05.563Z,33
2023-03-05T00:44:08.896Z,33
2023-03-05T00:45:12.382Z,33
2023-03-05T00:46:15.754Z,33
2023-03-05T00:47:19.367Z,33
2023-03-05T00:48:22.640Z,33
2023-03-05T00:49:25.957Z,33
2023-03-05T00:50:29.485Z,33
2023-03-05T00:51:32.798Z,33
2023-03-05T00:52:36.127Z,33
2023-03-05T00:53:39.463Z,33
2023-03-05T00:54:42.724Z,33
2023-03-05T00:55:46.046Z,33
2023-03-05T00:56:49.441Z,33
2023-03-05T00:57:52.720Z,33
2023-03-05T00:58:56.260Z,33
2023-03-05T00:59:59.562Z,33
2023-03-05T01:01:03.210Z,33
2023-03-05T01:02:06.574Z,33
2023-03-05T01:03:09.872Z,33
2023-03-05T01:04:13.437Z,33
2023-03-05T01:05:16.771Z,33
2023-03-05T01:06:20.391Z,33
2023-03-05T01:07:23.663Z,33
2023-03-05T01:08:26.951Z,33
2023-03-05T01:09:30.419Z,33
2023-03-05T01:10:33.717Z,33
2023-03-05T01:11:37.048Z,33
2023-03-05T01:12:40.385Z,33
2023-03-05T01:13:43.698Z,33
2023-03-05T01:14:47.251Z,32
2023-03-05T01:15:50.556Z,33
2023-03-05T01:16:53.862Z,33
2023-03-05T01:17:57.370Z,33
2023-03-05T01:19:00.649Z,33
2023-03-05T01:20:03.926Z,32
2023-03-05T01:21:07.387Z,32
2023-03-05T01:22:10.722Z,32
2023-03-05T01:23:14.243Z,32
2023-03-05T01:24:17.577Z,32
2023-03-05T01:25:20.875Z,32
2023-03-05T01:26:24.381Z,32
2023-03-05T01:27:27.666Z,33
2023-03-05T01:28:30.937Z,33
2023-03-05T01:29:34.397Z,33
2023-03-05T01:30:37.667Z,32
2023-03-05T01:31:41.288Z,32
2023-03-05T01:32:44.634Z,32
2023-03-05T01:33:47.914Z,32
2023-03-05T01:34:51.401Z,32
2023-03-05T01:35:54.741Z,32
2023-03-05T01:36:58.062Z,32
2023-03-05T01:38:01.399Z,32
2023-03-05T01:39:04.694Z,32
2023-03-05T01:40:08.289Z,33
2023-03-05T01:41:11.569Z,32
2023-03-05T01:42:14.853Z,32
2023-03-05T01:43:18.408Z,32
2023-03-05T01:44:21.720Z,32
2023-03-05T01:45:25.162Z,32
2023-03-05T01:46:28.459Z,32
2023-03-05T01:47:31.788Z,32
2023-03-05T01:48:35.295Z,32
2023-03-05T01:49:38.651Z,32
2023-03-05T01:50:41.962Z,32
2023-03-05T01:51:45.387Z,32
2023-03-05T01:52:48.667Z,32
2023-03-05T01:53:51.937Z,32
2023-03-05T01:54:55.433Z,32
2023-03-05T01:55:58.725Z,32
2023-03-05T01:57:01.993Z,32
2023-03-05T01:58:05.509Z,32
2023-03-05T01:59:08.817Z,33
2023-03-05T02:00:12.129Z,32
2023-03-05T02:01:15.437Z,33
2023-03-05T02:02:18.831Z,32
2023-03-05T02:03:22.133Z,33
2023-03-05T02:04:25.425Z,33
2023-03-05T02:05:28.738Z,33
2023-03-05T02:06:32.266Z,33
2023-03-05T02:07:35.607Z,33
2023-03-05T02:08:38.898Z,32
2023-03-05T02:09:42.404Z,33
2023-03-05T02:10:45.740Z,33
2023-03-05T02:11:49.051Z,33
2023-03-05T02:12:52.401Z,32
2023-03-05T02:13:55.671Z,33
2023-03-05T02:14:58.988Z,33
2023-03-05T02:16:02.821Z,33
2023-03-05T02:17:06.138Z,33
2023-03-05T02:18:09.447Z,33
2023-03-05T02:19:12.755Z,33
2023-03-05T02:20:16.069Z,33
2023-03-05T02:21:19.416Z,33
2023-03-05T02:22:22.723Z,33
2023-03-05T02:23:26.026Z,33
2023-03-05T02:24:29.525Z,33
2023-03-05T02:25:32.790Z,33
2023-03-05T02:26:36.072Z,33
2023-03-05T02:27:39.404Z,33
2023-03-05T02:28:42.682Z,33
2023-03-05T02:29:45.946Z,33
2023-03-05T02:30:49.438Z,33
2023-03-05T02:31:52.850Z,33
2023-03-05T02:32:56.406Z,33
2023-03-05T02:33:59.677Z,33
2023-03-05T02:35:02.981Z,33
2023-03-05T02:36:06.398Z,33
2023-03-05T02:37:09.688Z,33
2023-03-05T02:38:12.981Z,33
2023-03-05T02:39:16.406Z,33
2023-03-05T02:40:19.671Z,33
2023-03-05T02:41:22.940Z,33
2023-03-05T02:42:26.498Z,33
2023-03-05T02:43:29.809Z,33
2023-03-05T02:44:33.086Z,33
2023-03-05T02:45:36.534Z,33
2023-03-05T02:46:39.901Z,33
2023-03-05T02:47:43.425Z,33
2023-03-05T02:48:46.709Z,33
2023-03-05T02:49:49.995Z,33
2023-03-05T02:50:53.541Z,33
2023-03-05T02:51:56.843Z,33
2023-03-05T02:53:00.160Z,33
2023-03-05T02:54:03.443Z,33
2023-03-05T02:55:06.760Z,33
2023-03-05T02:56:10.038Z,33
2023-03-05T02:57:13.425Z,33
2023-03-05T02:58:16.709Z,33
2023-03-05T02:59:20.008Z,33
2023-03-05T03:00:23.539Z,33
2023-03-05T03:01:26.859Z,33
2023-03-05T03:02:30.451Z,33
2023-03-05T03:03:33.820Z,33
2023-03-05T03:04:37.152Z,33
2023-03-05T03:05:40.450Z,33
2023-03-05T03:06:43.851Z,33
2023-03-05T03:07:47.394Z,33
2023-03-05T03:08:50.704Z,33
2023-03-05T03:09:54.069Z,33
2023-03-05T03:10:57.459Z,33
2023-03-05T03:12:00.747Z,33
2023-03-05T03:13:04.067Z,33
2023-03-05T03:14:07.432Z,33
2023-03-05T03:15:13.814Z,33
2023-03-05T03:16:17.351Z,33
2023-03-05T03:17:20.631Z,33
2023-03-05T03:18:23.932Z,33
2023-03-05T03:19:27.446Z,33
2023-03-05T03:20:30.723Z,33
2023-03-05T03:21:34.024Z,33
2023-03-05T03:22:37.497Z,33
2023-03-05T03:23:40.777Z,33
2023-03-05T03:24:44.316Z,33
2023-03-05T03:25:47.597Z,33
2023-03-05T03:26:50.893Z,33
2023-03-05T03:27:54.197Z,33
2023-03-05T03:28:57.500Z,33
2023-03-05T03:30:00.773Z,33
2023-03-05T03:31:04.211Z,33
2023-03-05T03:32:07.700Z,33
2023-03-05T03:33:11.002Z,33
2023-03-05T03:34:14.537Z,33
2023-03-05T03:35:17.939Z,33
2023-03-05T03:36:21.455Z,33
2023-03-05T03:37:24.719Z,33
2023-03-05T03:38:28.008Z,33
2023-03-05T03:39:31.451Z,33
2023-03-05T03:40:34.722Z,33
2023-03-05T03:41:38.004Z,33
2023-03-05T03:42:41.566Z,33
2023-03-05T03:43:44.855Z,33
2023-03-05T03:44:48.146Z,33
2023-03-05T03:45:51.532Z,33
2023-03-05T03:46:54.954Z,33
2023-03-05T03:47:58.456Z,33
2023-03-05T03:49:01.713Z,33
2023-03-05T03:50:05.066Z,33
2023-03-05T03:51:08.639Z,33
2023-03-05T03:52:11.947Z,33
2023-03-05T03:53:15.467Z,33
2023-03-05T03:54:18.827Z,33
2023-03-05T03:55:22.144Z,33
2023-03-05T03:56:25.472Z,33
2023-03-05T03:57:28.767Z,33
2023-03-05T03:58:32.031Z,33
2023-03-05T03:59:35.579Z,33
2023-03-05T04:00:38.866Z,33
2023-03-05T04:01:42.144Z,33
2023-03-05T04:02:45.575Z,33
2023-03-05T04:03:48.963Z,33
2023-03-05T04:04:52.478Z,33
2023-03-05T04:05:55.880Z,33
2023-03-05T04:06:59.410Z,33
2023-03-05T04:08:02.710Z,33
2023-03-05T04:09:06.014Z,33
2023-03-05T04:10:09.495Z,33
2023-03-05T04:11:12.816Z,33
2023-03-05T04:12:16.097Z,33
2023-03-05T04:13:19.491Z,32
2023-03-05T04:14:22.760Z,32
2023-03-05T04:15:26.056Z,32
2023-03-05T04:16:29.561Z,32
2023-03-05T04:17:32.834Z,32
2023-03-05T04:18:36.161Z,32
2023-03-05T04:19:39.460Z,32
2023-03-05T04:20:42.737Z,32
2023-03-05T04:21:46.069Z,32
2023-03-05T04:22:49.469Z,32
2023-03-05T04:23:52.757Z,32
2023-03-05T04:24:56.022Z,33
2023-03-05T04:25:59.551Z,33
2023-03-05T04:27:02.861Z,33
2023-03-05T04:28:06.187Z,33
2023-03-05T04:29:09.521Z,33
2023-03-05T04:30:12.850Z,33
2023-03-05T04:31:16.247Z,33
2023-03-05T04:32:19.666Z,33
2023-03-05T04:33:23.070Z,33
2023-03-05T04:34:26.604Z,33
2023-03-05T04:35:29.971Z,33
2023-03-05T04:36:33.473Z,33
2023-03-05T04:37:36.789Z,33
2023-03-05T04:38:40.128Z,33
2023-03-05T04:39:43.472Z,33
2023-03-05T04:40:46.845Z,33
2023-03-05T04:41:50.381Z,33
2023-03-05T04:42:53.668Z,33
2023-03-05T04:43:57.008Z,33
2023-03-05T04:45:00.495Z,33
2023-03-05T04:46:03.868Z,33
2023-03-05T04:47:07.227Z,33
2023-03-05T04:48:10.524Z,33
2023-03-05T04:49:13.804Z,33
2023-03-05T04:50:17.359Z,33
2023-03-05T04:51:20.668Z,33
2023-03-05T04:52:24.067Z,33
2023-03-05T04:53:27.512Z,33
2023-03-05T04:54:30.811Z,33
2023-03-05T04:55:34.092Z,33
2023-03-05T04:56:37.469Z,33
2023-03-05T04:57:40.824Z,33
2023-03-05T04:58:44.354Z,33
2023-03-05T04:59:47.630Z,33
2023-03-05T05:00:50.907Z,33
2023-03-05T05:01:54.314Z,33
2023-03-05T05:02:57.760Z,33
2023-03-05T05:04:01.170Z,33
2023-03-05T05:05:04.491Z,33
2023-03-05T05:06:07.794Z,33
2023-03-05T05:07:11.082Z,33
2023-03-05T05:08:14.578Z,33
2023-03-05T05:09:17.876Z,33
2023-03-05T05:10:21.154Z,33
2023-03-05T05:11:24.483Z,33
2023-03-05T05:12:27.764Z,33
2023-03-05T05:13:31.108Z,33
2023-03-05T05:14:34.506Z,33
2023-03-05T05:15:37.766Z,33
2023-03-05T05:16:41.043Z,33
2023-03-05T05:17:44.577Z,33
2023-03-05T05:18:47.922Z,33
2023-03-05T05:19:51.206Z,33
2023-03-05T05:20:54.521Z,33
2023-03-05T05:21:57.810Z,33
2023-03-05T05:23:01.060Z,33
2023-03-05T05:24:04.512Z,33
2023-03-05T05:25:07.832Z,33
2023-03-05T05:26:11.390Z,33
2023-03-05T05:27:14.689Z,33
2023-03-05T05:28:17.987Z,33
2023-03-05T05:29:21.538Z,33
2023-03-05T05:30:24.806Z,33
2023-03-05T05:31:28.145Z,33
2023-03-05T05:32:31.782Z,33
2023-03-05T05:33:35.405Z,33
2023-03-05T05:34:38.680Z,33
2023-03-05T05:35:42.083Z,33
2023-03-05T05:36:45.512Z,33
2023-03-05T05:37:48.781Z,33
2023-03-05T05:38:52.063Z,33
2023-03-05T05:39:55.509Z,33
2023-03-05T05:40:58.814Z,33
2023-03-05T05:42:02.109Z,33
2023-03-05T05:43:05.610Z,33
2023-03-05T05:44:08.899Z,33
2023-03-05T05:45:12.380Z,33
2023-03-05T05:46:16.060Z,33
2023-03-05T05:47:19.660Z,33
2023-03-05T05:48:22.977Z,33
2023-03-05T05:49:26.532Z,33
2023-03-05T05:50:30.032Z,33
2023-03-05T05:51:33.499Z,33
2023-03-05T05:52:36.779Z,33
2023-03-05T05:53:40.117Z,33
2023-03-05T05:54:43.553Z,33
2023-03-05T05:55:46.825Z,33
2023-03-05T05:56:50.133Z,33
2023-03-05T05:57:53.619Z,33
2023-03-05T05:58:56.916Z,33
2023-03-05T06:00:00.261Z,33
2023-03-05T06:01:03.600Z,33
2023-03-05T06:02:06.931Z,33
2023-03-05T06:03:10.623Z,33
2023-03-05T06:04:14.043Z,33
2023-03-05T06:05:17.599Z,33
2023-03-05T06:06:20.882Z,33
2023-03-05T06:07:24.165Z,33
2023-03-05T06:08:27.516Z,33
2023-03-05T06:09:30.818Z,33
2023-03-05T06:10:34.096Z,33
2023-03-05T06:11:37.537Z,33
2023-03-05T06:12:40.844Z,33
2023-03-05T06:13:44.136Z,33
2023-03-05T06:14:47.782Z,33
2023-03-05T06:15:51.103Z,33
2023-03-05T06:16:54.755Z,33
2023-03-05T06:17:58.130Z,33
2023-03-05T06:19:04.558Z,33
2023-03-05T06:20:08.074Z,33
2023-03-05T06:21:11.610Z,33
2023-03-05T06:22:14.896Z,33
2023-03-05T06:23:18.156Z,33
2023-03-05T06:24:21.612Z,33
2023-03-05T06:25:28.154Z,34
2023-03-05T06:26:31.555Z,34
2023-03-05T06:27:34.855Z,33
2023-03-05T06:28:40.667Z,34
2023-03-05T06:29:43.947Z,34
2023-03-05T06:30:47.746Z,32
2023-03-05T06:31:51.084Z,30
2023-03-05T06:32:54.554Z,27
2023-03-05T06:33:57.878Z,28
2023-03-05T06:35:01.201Z,27
2023-03-05T06:36:04.527Z,27
2023-03-05T06:37:07.848Z,27
2023-03-05T06:38:11.133Z,26
2023-03-05T06:39:14.653Z,27
2023-03-05T06:40:17.954Z,27
2023-03-05T06:41:21.269Z,28
2023-03-05T06:42:24.561Z,27
2023-03-05T06:43:27.850Z,28
2023-03-05T06:44:31.137Z,28
2023-03-05T06:45:34.821Z,28
2023-03-05T06:46:38.452Z,27
2023-03-05T06:47:41.722Z,28
2023-03-05T06:48:45.004Z,28
2023-03-05T16:08:03.988Z,32
2023-03-05T16:09:07.258Z,33
2023-03-05T16:10:10.605Z,32
2023-03-05T16:11:14.149Z,33
2023-03-05T16:12:17.443Z,33
2023-03-05T16:13:22.019Z,33
2023-03-05T16:14:25.324Z,33
2023-03-05T16:15:28.683Z,32
2023-03-05T16:16:32.280Z,28
2023-03-05T16:17:35.654Z,28
2023-03-05T16:18:39.201Z,27
2023-03-05T16:19:42.556Z,25
2023-03-05T16:20:46.149Z,25
2023-03-05T16:21:49.452Z,26
2023-03-05T16:22:52.756Z,27
2023-03-05T16:23:56.085Z,27
2023-03-05T16:24:59.354Z,25
2023-03-05T16:26:02.761Z,24
2023-03-05T16:27:06.163Z,23
2023-03-05T16:28:09.475Z,23
2023-03-05T16:29:15.327Z,24
2023-03-05T16:30:18.700Z,24
2023-03-05T16:31:23.028Z,26
2023-03-05T16:32:26.700Z,27
2023-03-05T16:33:30.226Z,27
2023-03-05T16:34:33.522Z,27
2023-03-05T16:35:37.118Z,28
2023-03-05T16:36:40.508Z,28
2023-03-05T16:37:43.786Z,28
2023-03-05T16:38:47.124Z,28
2023-03-05T16:39:50.536Z,28
2023-03-05T16:41:07.609Z,29
2023-03-05T16:42:11.509Z,29
2023-03-05T16:43:14.784Z,29
2023-03-05T16:44:18.115Z,29
2023-03-05T16:45:21.407Z,29
2023-03-05T16:46:25.128Z,29
2023-03-05T16:47:28.715Z,29
2023-03-05T16:48:32.215Z,29
2023-03-05T16:49:35.613Z,29
2023-03-05T16:50:39.181Z,29
2023-03-05T16:51:42.449Z,29
2023-03-05T16:52:46.026Z,29
2023-03-05T16:53:49.342Z,29
2023-03-05T16:54:52.662Z,29
2023-03-05T16:55:56.118Z,29
2023-03-05T16:57:07.915Z,30
2023-03-05T16:58:12.104Z,30
2023-03-05T16:59:15.369Z,30
2023-03-05T17:00:18.620Z,30
2023-03-05T17:01:22.335Z,30
2023-03-05T17:02:25.726Z,30
2023-03-05T17:03:29.108Z,30
2023-03-05T17:04:32.381Z,30
2023-03-05T17:05:35.664Z,30
2023-03-05T17:06:39.090Z,30
2023-03-05T17:07:42.404Z,30
2023-03-05T17:08:46.005Z,30
2023-03-05T17:09:49.310Z,30
2023-03-05T17:10:52.626Z,30
2023-03-05T17:11:56.097Z,30
2023-03-05T17:12:59.411Z,30
2023-03-05T17:14:02.738Z,30
2023-03-05T17:15:06.073Z,30
2023-03-05T17:16:09.417Z,30
2023-03-05T17:17:12.998Z,30
2023-03-05T17:18:16.274Z,31
2023-03-05T17:19:19.618Z,31
2023-03-05T17:20:23.081Z,31
2023-03-05T17:21:26.380Z,31
2023-03-05T17:22:29.650Z,31
2023-03-05T17:23:33.092Z,31
2023-03-05T17:24:36.413Z,31
2023-03-05T17:25:39.956Z,31
2023-03-05T17:26:43.304Z,31
2023-03-05T17:27:46.577Z,31
2023-03-05T17:28:50.122Z,26
2023-03-05T17:29:53.639Z,24
2023-03-05T17:30:57.089Z,23
2023-03-05T17:32:00.782Z,23
2023-03-05T17:33:04.516Z,23
2023-03-05T17:34:08.086Z,22
2023-03-05T17:35:11.444Z,23
2023-03-05T17:36:14.710Z,23
2023-03-05T17:37:18.088Z,23
2023-03-05T17:38:21.351Z,23
2023-03-05T17:39:25.071Z,24
2023-03-05T17:40:28.374Z,24
2023-03-05T17:41:31.667Z,26
2023-03-05T17:42:35.141Z,26
2023-03-05T17:43:38.408Z,26
2023-03-05T17:44:41.702Z,26
2023-03-05T17:45:45.343Z,26
2023-03-05T17:46:48.689Z,26
2023-03-05T17:47:52.200Z,26
2023-03-05T17:48:55.625Z,27
2023-03-05T17:49:59.185Z,27
2023-03-05T17:51:02.519Z,27
2023-03-05T17:52:05.812Z,27
2023-03-05T17:53:09.106Z,27
2023-03-05T17:54:12.402Z,25
2023-03-05T17:55:15.988Z,25
2023-03-05T17:56:19.304Z,26
2023-03-05T17:57:22.605Z,26
2023-03-05T17:58:26.153Z,27
2023-03-05T17:59:29.894Z,27
2023-03-05T18:00:36.172Z,27
2023-03-05T18:01:39.504Z,27
2023-03-05T18:02:43.082Z,27
2023-03-05T18:03:46.371Z,26
2023-03-05T18:04:49.680Z,27
2023-03-05T18:05:53.114Z,26
2023-03-05T18:06:56.425Z,27
2023-03-05T18:07:59.735Z,27
2023-03-05T18:09:03.116Z,27
2023-03-05T18:10:06.419Z,27
2023-03-05T18:11:09.705Z,27
2023-03-05T18:12:13.266Z,27
2023-03-05T18:13:16.603Z,28
2023-03-05T18:14:20.155Z,28
2023-03-05T18:15:23.454Z,28
2023-03-05T18:16:26.906Z,28
2023-03-05T18:17:30.293Z,28
2023-03-05T18:18:33.659Z,28
2023-03-05T18:19:37.189Z,28
2023-03-05T18:20:40.479Z,28
2023-03-05T18:21:43.765Z,28
2023-03-05T18:22:47.156Z,28
2023-03-05T18:23:50.427Z,28
2023-03-05T18:24:53.704Z,28
2023-03-05T18:25:57.136Z,28
2023-03-05T18:27:00.427Z,28
2023-03-05T18:28:03.985Z,28
2023-03-05T18:29:07.318Z,28
2023-03-05T18:30:10.656Z,28
2023-03-05T18:31:14.414Z,28
2023-03-05T18:32:17.999Z,28
2023-03-05T18:33:21.411Z,28
2023-03-05T18:34:24.693Z,28
2023-03-05T18:35:28.241Z,28
2023-03-05T18:36:31.998Z,28
2023-03-05T18:37:35.422Z,29
2023-03-05T18:38:38.761Z,29
2023-03-05T18:39:42.125Z,29
2023-03-05T18:40:45.456Z,29
2023-03-05T18:41:48.736Z,29
2023-03-05T18:42:52.138Z,29
2023-03-05T18:43:55.497Z,29
2023-03-05T18:44:58.847Z,29
2023-03-05T18:46:02.430Z,29
2023-03-05T18:47:06.145Z,29
2023-03-05T18:48:09.419Z,29
2023-03-05T18:49:12.716Z,29
2023-03-05T18:50:16.216Z,29
2023-03-05T18:51:19.497Z,29
2023-03-05T18:52:22.788Z,29
2023-03-05T18:53:26.149Z,29
2023-03-05T18:54:29.497Z,29
2023-03-05T18:55:32.883Z,27
2023-03-05T18:56:36.242Z,24
2023-03-05T18:57:39.568Z,24
2023-03-05T18:58:43.085Z,25
2023-03-05T18:59:46.422Z,25
2023-03-05T19:00:49.749Z,25
2023-03-05T19:01:53.200Z,25
2023-03-05T19:02:56.503Z,26
2023-03-05T19:03:59.966Z,26
2023-03-05T19:05:04.042Z,27
2023-03-05T19:06:07.317Z,27
2023-03-05T19:07:10.746Z,27
2023-03-05T19:08:14.136Z,27
2023-03-05T19:09:17.419Z,28
2023-03-05T19:10:20.799Z,28
2023-03-05T19:11:24.142Z,28
2023-03-05T19:12:27.459Z,28
2023-03-05T19:13:31.015Z,28
2023-03-05T19:14:34.325Z,28
2023-03-05T19:15:37.644Z,28
2023-03-05T19:16:41.164Z,28
2023-03-05T19:17:44.560Z,28
2023-03-05T19:18:47.885Z,28
2023-03-05T19:19:51.179Z,28
2023-03-05T19:20:54.505Z,28
2023-03-05T19:21:58.016Z,28
2023-03-05T19:23:01.334Z,28
2023-03-05T19:24:04.630Z,28
2023-03-05T19:25:08.163Z,28
2023-03-05T19:26:11.474Z,28
2023-03-05T19:27:14.755Z,29
2023-03-05T19:28:18.245Z,29
2023-03-05T19:29:21.740Z,29
2023-03-05T19:30:25.411Z,29
2023-03-05T19:31:31.264Z,29
2023-03-05T19:32:34.679Z,29
2023-03-05T19:33:38.253Z,29
2023-03-05T19:34:41.588Z,29
2023-03-05T19:35:45.093Z,29
2023-03-05T19:36:48.523Z,29
2023-03-05T19:37:52.066Z,28
2023-03-05T19:38:55.353Z,28
2023-03-05T19:39:58.632Z,29
2023-03-05T19:41:02.163Z,29
2023-03-05T19:42:05.506Z,29
2023-03-05T19:43:08.785Z,29
2023-03-05T19:44:12.366Z,29
2023-03-05T19:45:15.670Z,29
2023-03-05T19:46:19.397Z,29
2023-03-05T19:47:22.820Z,29
2023-03-05T19:48:26.141Z,29
2023-03-05T19:49:29.486Z,29
2023-03-05T19:50:34.736Z,29
2023-03-05T19:51:38.149Z,29
2023-03-05T19:52:41.630Z,29
2023-03-05T19:53:45.157Z,29
2023-03-05T19:54:48.484Z,29
2023-03-05T19:55:52.038Z,29
2023-03-05T19:56:55.334Z,29
2023-03-05T19:57:58.626Z,29
2023-03-05T19:59:02.156Z,30
2023-03-05T20:00:05.456Z,30
2023-03-05T20:01:08.746Z,30
2023-03-05T20:02:12.156Z,30
2023-03-05T20:03:15.464Z,30
2023-03-05T20:04:19.027Z,30
2023-03-05T20:05:25.548Z,30
2023-03-05T20:06:28.868Z,30
2023-03-05T20:07:32.148Z,30
2023-03-05T20:08:35.439Z,30
2023-03-05T20:09:38.831Z,30
2023-03-05T20:10:42.164Z,29
2023-03-05T20:11:45.476Z,29
2023-03-05T20:12:48.768Z,29
2023-03-05T20:13:52.644Z,30
2023-03-05T20:14:56.176Z,30
2023-03-05T20:15:59.604Z,30
2023-03-05T20:17:03.164Z,30
2023-03-05T20:18:10.101Z,30
2023-03-05T20:19:13.486Z,29
2023-03-05T20:20:16.807Z,29
2023-03-05T20:21:20.224Z,29
2023-03-05T20:22:23.519Z,29
2023-03-05T20:23:26.823Z,29
2023-03-05T20:24:30.182Z,29
2023-03-05T20:25:33.468Z,29
2023-03-05T20:26:37.084Z,29
2023-03-05T20:27:40.369Z,29
2023-03-05T20:28:43.656Z,29
2023-03-05T20:29:47.167Z,29
2023-03-05T20:30:50.454Z,29
2023-03-05T20:31:53.728Z,29
2023-03-05T20:32:57.178Z,29
2023-03-05T20:34:00.446Z,30
2023-03-05T20:35:03.754Z,29
2023-03-05T20:36:07.341Z,29
2023-03-05T20:37:10.655Z,29
2023-03-05T20:38:14.178Z,30
2023-03-05T20:39:17.490Z,30
2023-03-05T20:40:20.797Z,30
2023-03-05T20:41:24.183Z,30
2023-03-05T20:42:27.464Z,30
2023-03-05T20:43:30.812Z,30
2023-03-05T20:44:34.317Z,30
2023-03-05T20:45:37.626Z,30
2023-03-05T20:46:41.145Z,30
2023-03-05T20:47:44.815Z,30
2023-03-05T20:48:48.192Z,30
2023-03-05T20:49:51.514Z,30
2023-03-05T20:50:54.792Z,30
2023-03-05T20:51:58.327Z,30
2023-03-05T20:53:01.686Z,30
2023-03-05T20:54:05.278Z,30
2023-03-05T20:55:08.990Z,30
2023-03-05T20:56:12.437Z,30
2023-03-05T20:57:15.728Z,30
2023-03-05T20:58:19.269Z,30
2023-03-05T20:59:22.648Z,30
2023-03-05T21:00:26.199Z,29
2023-03-05T21:01:29.497Z,29
2023-03-05T21:02:32.804Z,29
2023-03-05T21:03:36.216Z,29
2023-03-05T21:04:39.539Z,28
2023-03-05T21:05:43.074Z,29
2023-03-05T21:06:46.483Z,29
2023-03-05T21:07:49.802Z,29
2023-03-05T21:08:53.470Z,29
2023-03-05T21:09:56.894Z,29
2023-03-05T21:11:00.265Z,29
2023-03-05T21:12:03.539Z,29
2023-03-05T21:13:07.070Z,30
2023-03-05T21:14:10.385Z,29
2023-03-05T21:15:13.678Z,30
2023-03-05T21:16:17.348Z,30
2023-03-05T21:17:20.666Z,30
2023-03-05T21:18:24.204Z,30
2023-03-05T21:19:27.655Z,30
2023-03-05T21:20:31.219Z,30
2023-03-05T21:21:34.498Z,29
2023-03-05T21:22:37.768Z,29
2023-03-05T21:23:41.201Z,29
2023-03-05T21:24:44.541Z,28
2023-03-05T21:25:48.006Z,28
2023-03-05T21:26:51.448Z,28
2023-03-05T21:27:54.826Z,28
2023-03-05T21:28:58.327Z,28
2023-03-05T21:30:01.824Z,28
2023-03-05T21:31:05.381Z,28
2023-03-05T21:32:08.734Z,28
2023-03-05T21:33:12.223Z,29
2023-03-05T21:34:15.519Z,29
2023-03-05T21:35:19.138Z,29
2023-03-05T21:36:22.567Z,29
2023-03-05T21:37:26.042Z,30
2023-03-05T21:38:29.377Z,30
2023-03-05T21:39:32.686Z,30
2023-03-05T21:40:36.305Z,30
2023-03-05T21:41:39.612Z,30
2023-03-05T21:42:43.126Z,30
2023-03-05T21:43:46.415Z,30
2023-03-05T21:44:49.734Z,30
2023-03-05T21:45:53.331Z,30
2023-03-05T21:46:56.779Z,30
2023-03-05T21:48:00.277Z,30
2023-03-05T21:49:03.576Z,30
2023-03-05T21:50:07.093Z,30
2023-03-05T21:51:10.425Z,30
2023-03-05T21:52:13.717Z,30
2023-03-05T21:53:17.219Z,30
2023-03-05T21:54:20.533Z,30
2023-03-05T21:55:23.874Z,30
2023-03-05T21:56:27.286Z,30
2023-03-05T21:57:30.601Z,30
2023-03-05T21:58:34.182Z,30
2023-03-05T21:59:37.471Z,30
2023-03-05T22:00:40.753Z,30
2023-03-05T22:01:44.224Z,30
2023-03-05T22:02:47.524Z,30
2023-03-05T22:03:51.026Z,31
2023-03-05T22:04:54.477Z,31
2023-03-05T22:05:57.768Z,30
2023-03-05T22:07:01.311Z,30
2023-03-05T22:08:04.608Z,30
2023-03-05T22:09:07.919Z,30
2023-03-05T22:10:11.217Z,30
2023-03-05T22:11:14.532Z,30
2023-03-05T22:12:17.874Z,30
2023-03-05T22:13:21.251Z,30
2023-03-05T22:14:24.537Z,30
2023-03-05T22:15:28.092Z,30
2023-03-05T22:16:31.581Z,30
2023-03-05T22:17:34.924Z,30
2023-03-05T22:18:38.246Z,31
2023-03-05T22:19:41.548Z,31
2023-03-05T22:20:44.847Z,30
2023-03-05T22:21:48.238Z,31
2023-03-05T22:22:51.535Z,31
2023-03-05T22:23:55.137Z,31
2023-03-05T22:24:58.465Z,31
2023-03-05T22:26:01.797Z,31
2023-03-05T22:27:05.354Z,31
2023-03-05T22:28:08.703Z,31
2023-03-05T22:29:12.239Z,31
2023-03-05T22:30:15.546Z,31
2023-03-05T22:31:18.825Z,31
2023-03-05T22:32:22.312Z,31
2023-03-05T22:33:25.677Z,31
2023-03-05T22:34:28.963Z,31
2023-03-05T22:35:32.297Z,31
2023-03-05T22:36:35.638Z,31
2023-03-05T22:37:38.935Z,31
2023-03-05T22:38:42.241Z,31
2023-03-05T22:39:45.528Z,31
2023-03-05T22:40:48.814Z,31
2023-03-05T22:41:52.358Z,31
2023-03-05T22:42:55.708Z,31
2023-03-05T22:43:59.368Z,31
2023-03-05T22:45:02.644Z,31
2023-03-05T22:46:06.002Z,31
2023-03-05T22:47:09.306Z,31
2023-03-05T22:48:12.709Z,31
2023-03-05T22:49:16.371Z,31
2023-03-05T22:50:19.714Z,31
2023-03-05T22:51:23.220Z,31
2023-03-05T22:52:26.536Z,31
2023-03-05T22:53:29.830Z,31
2023-03-05T22:54:33.241Z,31
2023-03-05T22:55:36.528Z,31
2023-03-05T22:56:39.832Z,31
2023-03-05T22:57:43.537Z,31
2023-03-05T22:58:46.883Z,31
2023-03-05T22:59:50.293Z,31
2023-03-05T23:00:53.563Z,31
2023-03-05T23:01:56.854Z,31
2023-03-05T23:03:00.479Z,31
2023-03-05T23:04:04.199Z,31
2023-03-05T23:05:07.594Z,31
2023-03-05T23:06:10.890Z,31
2023-03-05T23:07:14.295Z,31
2023-03-05T23:08:17.595Z,31
2023-03-05T23:09:20.888Z,31
2023-03-05T23:10:27.390Z,30
2023-03-05T23:11:30.727Z,30
2023-03-05T23:12:34.383Z,30
2023-03-05T23:13:37.675Z,30
2023-03-05T23:14:41.005Z,30
2023-03-05T23:15:44.427Z,30
2023-03-05T23:16:47.752Z,30
2023-03-05T23:17:51.315Z,30
2023-03-05T23:18:54.711Z,30
2023-03-05T23:19:58.229Z,30
2023-03-05T23:21:01.526Z,30
2023-03-05T23:22:04.807Z,30
2023-03-05T23:23:08.284Z,30
2023-03-05T23:24:11.787Z,30
2023-03-05T23:25:15.263Z,30
2023-03-05T23:26:18.559Z,30
2023-03-05T23:27:21.879Z,30
2023-03-05T23:28:25.417Z,30
2023-03-05T23:29:28.723Z,30
2023-03-05T23:30:32.027Z,30
2023-03-05T23:31:35.569Z,30
2023-03-05T23:32:38.920Z,30
2023-03-05T23:33:42.292Z,30
2023-03-05T23:34:45.576Z,30
2023-03-05T23:35:49.202Z,30
2023-03-05T23:36:52.558Z,30
2023-03-05T23:37:55.841Z,30
2023-03-05T23:38:59.269Z,30
2023-03-05T23:40:02.544Z,30
2023-03-05T23:41:05.852Z,30
2023-03-05T23:42:09.267Z,28
2023-03-05T23:43:12.539Z,24
2023-03-05T23:44:15.875Z,23
2023-03-05T23:45:19.380Z,22
2023-03-05T23:46:22.902Z,22
2023-03-05T23:47:26.325Z,22
2023-03-05T23:48:29.747Z,23
2023-03-05T23:49:33.354Z,23
2023-03-05T23:50:36.704Z,24
2023-03-05T23:51:40.186Z,25
2023-03-05T23:52:43.462Z,25
2023-03-05T23:53:46.834Z,26
2023-03-05T23:54:50.264Z,26
2023-03-05T23:55:53.561Z,26
2023-03-05T23:56:56.862Z,26
2023-03-05T23:58:00.281Z,26
2023-03-05T23:59:03.591Z,26
